Time;durP1;ratioP1;P1;durP2;ratioP2;P2;SDS_P1;SDS_P2;PMS_P1;PMS_P2;Temp;Humidity;BMP_temperature;BMP_pressure;BME280_temperature;BME280_humidity;BME280_pressure;Samples;Min_cycle;Max_cycle;Signal;HPM_P1;HPM_P2
2021/05/23 00:00:49;;;;;;;5.78;2.13;;;11.90;98.00;;;;;;5017870;28;20029;-71
2021/05/23 00:03:16;;;;;;;3.72;0.98;;;11.80;98.00;;;;;;5017500;28;20407;-71
2021/05/23 00:05:43;;;;;;;4.93;1.00;;;11.80;98.00;;;;;;5017359;28;20030;-72
2021/05/23 00:08:12;;;;;;;3.22;1.25;;;11.70;98.00;;;;;;5016858;28;20071;-71
2021/05/23 00:10:42;;;;;;;3.42;1.10;;;11.80;98.00;;;;;;5017625;28;20030;-71
2021/05/23 00:13:10;;;;;;;3.13;0.90;;;11.80;98.00;;;;;;5017708;28;20124;-71
2021/05/23 00:15:43;;;;;;;5.97;1.00;;;11.90;98.00;;;;;;5017525;28;20029;-71
2021/05/23 00:18:10;;;;;;;2.47;0.80;;;12.10;98.00;;;;;;5017246;28;20053;-71
2021/05/23 00:20:36;;;;;;;3.22;0.90;;;12.10;98.00;;;;;;5017208;28;20025;-71
2021/05/23 00:23:04;;;;;;;1.75;0.80;;;12.00;98.00;;;;;;5017264;28;20022;-71
2021/05/23 00:25:30;;;;;;;3.80;1.05;;;12.00;98.00;;;;;;5017522;28;20410;-71
2021/05/23 00:27:56;;;;;;;4.57;1.10;;;11.90;98.00;;;;;;5017047;28;20057;-71
2021/05/23 00:30:22;;;;;;;3.33;0.95;;;11.70;98.00;;;;;;5016900;28;20343;-71
2021/05/23 00:32:49;;;;;;;2.50;0.82;;;11.70;98.00;;;;;;5017324;28;20033;-71
2021/05/23 00:35:16;;;;;;;3.78;1.25;;;11.70;98.00;;;;;;5017318;28;20056;-71
2021/05/23 00:37:42;;;;;;;3.83;0.90;;;11.70;98.00;;;;;;5017211;28;20022;-71
2021/05/23 00:40:08;;;;;;;2.90;1.27;;;11.70;98.00;;;;;;5017279;28;20033;-71
2021/05/23 00:42:34;;;;;;;5.50;0.70;;;11.70;98.00;;;;;;5016986;28;20034;-71
2021/05/23 00:45:01;;;;;;;5.43;1.00;;;11.70;98.00;;;;;;5017214;28;20094;-71
2021/05/23 00:47:27;;;;;;;2.40;0.80;;;11.90;98.00;;;;;;5017234;28;20360;-71
2021/05/23 00:49:54;;;;;;;2.33;0.80;;;12.00;98.00;;;;;;5017168;28;20034;-71
2021/05/23 00:52:20;;;;;;;2.42;0.90;;;12.00;98.00;;;;;;5017149;28;20108;-71
2021/05/23 00:54:46;;;;;;;1.63;0.80;;;11.90;98.00;;;;;;5016901;28;20176;-71
2021/05/23 00:57:12;;;;;;;2.85;1.10;;;11.90;98.00;;;;;;5017054;28;20494;-71
2021/05/23 00:59:38;;;;;;;1.75;0.95;;;12.00;98.00;;;;;;5016826;28;20322;-71
2021/05/23 01:02:06;;;;;;;4.55;0.93;;;12.00;98.00;;;;;;5016700;28;20097;-71
2021/05/23 01:04:33;;;;;;;5.47;1.10;;;12.00;98.00;;;;;;5016659;28;20130;-71
2021/05/23 01:06:59;;;;;;;4.68;1.10;;;12.00;98.00;;;;;;5016977;28;20025;-71
2021/05/23 01:09:25;;;;;;;5.18;1.10;;;12.00;98.00;;;;;;5016983;28;20030;-71
2021/05/23 01:11:51;;;;;;;2.03;1.02;;;12.00;98.00;;;;;;5016669;28;20080;-71
2021/05/23 01:14:44;;;;;;;4.43;1.77;;;12.00;98.00;;;;;;5016620;28;20034;-71
2021/05/23 01:17:13;;;;;;;4.43;1.02;;;12.10;98.00;;;;;;5016868;28;20026;-71
2021/05/23 01:19:42;;;;;;;4.20;1.00;;;12.10;98.00;;;;;;5019245;28;20026;-71
2021/05/23 01:22:31;;;;;;;3.30;1.00;;;12.00;98.00;;;;;;5020724;28;20022;-71
2021/05/23 01:25:19;;;;;;;3.15;1.00;;;12.10;98.00;;;;;;5020722;28;20299;-71
2021/05/23 01:27:48;;;;;;;2.65;1.10;;;12.10;98.00;;;;;;5020396;28;20457;-71
2021/05/23 01:30:23;;;;;;;1.48;0.90;;;12.20;97.40;;;;;;5020032;28;20054;-71
2021/05/23 01:32:50;;;;;;;3.15;1.55;;;12.20;97.10;;;;;;5020304;28;20022;-71
2021/05/23 01:35:20;;;;;;;6.45;3.13;;;12.20;97.70;;;;;;5020504;28;20474;-71
2021/05/23 01:37:59;;;;;;;16.42;7.03;;;12.10;97.50;;;;;;5020455;28;20104;-71
2021/05/23 01:40:26;;;;;;;5.15;1.42;;;12.20;95.40;;;;;;5020168;28;20025;-71
2021/05/23 01:42:52;;;;;;;5.13;1.33;;;12.20;93.50;;;;;;5020109;28;20088;-71
2021/05/23 01:45:18;;;;;;;3.58;1.17;;;12.20;92.90;;;;;;5020300;28;20104;-71
2021/05/23 01:47:44;;;;;;;5.03;2.35;;;12.30;93.90;;;;;;5019958;28;20025;-71
2021/05/23 01:50:10;;;;;;;3.95;1.35;;;12.20;96.60;;;;;;5020281;28;20322;-71
2021/05/23 01:52:42;;;;;;;3.28;1.25;;;12.20;96.80;;;;;;5020248;28;20030;-71
2021/05/23 01:55:09;;;;;;;5.00;1.10;;;11.90;97.00;;;;;;5020320;28;20461;-71
2021/05/23 01:57:35;;;;;;;4.10;0.82;;;11.90;97.90;;;;;;5019689;28;20030;-71
2021/05/23 02:00:01;;;;;;;2.63;1.00;;;11.80;98.00;;;;;;5020110;28;20098;-71
2021/05/23 02:02:26;;;;;;;3.03;1.33;;;11.70;98.00;;;;;;5020098;28;20346;-71
2021/05/23 02:04:52;;;;;;;5.70;1.13;;;11.70;98.00;;;;;;5019931;28;20022;-71
2021/05/23 02:07:18;;;;;;;1.58;0.90;;;11.70;98.00;;;;;;5019946;28;20026;-71
2021/05/23 02:09:43;;;;;;;3.53;1.00;;;11.80;98.00;;;;;;5019921;28;20034;-71
2021/05/23 02:12:09;;;;;;;4.65;1.05;;;11.90;98.00;;;;;;5019553;28;20303;-71
2021/05/23 02:14:35;;;;;;;3.75;1.10;;;11.80;98.00;;;;;;5019454;28;20061;-71
2021/05/23 02:17:01;;;;;;;1.90;0.70;;;11.80;97.40;;;;;;5019725;28;20018;-71
2021/05/23 02:19:26;;;;;;;4.57;1.20;;;11.80;97.80;;;;;;5019740;28;20462;-71
2021/05/23 02:21:52;;;;;;;4.25;1.20;;;11.70;98.00;;;;;;5019657;28;20022;-71
2021/05/23 02:24:18;;;;;;;6.90;1.08;;;11.70;98.00;;;;;;5019311;28;20399;-71
2021/05/23 02:26:44;;;;;;;4.43;1.30;;;11.60;98.00;;;;;;5019575;28;20029;-71
2021/05/23 02:29:10;;;;;;;4.75;1.30;;;11.50;98.00;;;;;;5018236;28;20334;-71
2021/05/23 02:31:36;;;;;;;6.07;1.08;;;11.40;98.00;;;;;;5017964;28;20077;-71
2021/05/23 02:34:03;;;;;;;5.10;1.35;;;11.40;98.00;;;;;;5019440;28;20050;-71
2021/05/23 02:36:30;;;;;;;3.83;1.10;;;11.30;98.00;;;;;;5019421;28;20030;-71
2021/05/23 02:38:56;;;;;;;3.85;0.80;;;11.30;98.00;;;;;;5019332;28;20030;-71
2021/05/23 02:41:21;;;;;;;5.40;1.20;;;11.40;98.00;;;;;;5019338;28;20406;-71
2021/05/23 02:43:47;;;;;;;4.65;1.52;;;11.20;97.10;;;;;;5019060;28;20029;-71
2021/05/23 02:46:13;;;;;;;4.47;1.63;;;11.10;97.00;;;;;;5019176;28;20030;-71
2021/05/23 02:48:38;;;;;;;7.45;1.30;;;11.10;96.70;;;;;;5019186;28;20143;-71
2021/05/23 02:51:04;;;;;;;4.55;1.38;;;11.20;95.30;;;;;;5018824;28;20026;-71
2021/05/23 02:53:30;;;;;;;7.43;1.80;;;11.20;95.90;;;;;;5019142;28;20034;-71
2021/05/23 02:55:56;;;;;;;4.03;2.28;;;11.20;95.70;;;;;;5019144;28;20076;-71
2021/05/23 02:58:22;;;;;;;3.28;1.27;;;11.20;96.20;;;;;;5018912;28;20069;-71
2021/05/23 03:00:48;;;;;;;2.85;1.20;;;11.30;97.10;;;;;;5018636;28;20026;-71
2021/05/23 03:03:15;;;;;;;5.00;1.00;;;11.20;97.80;;;;;;5018957;28;20029;-71
2021/05/23 03:05:42;;;;;;;4.75;1.00;;;11.10;98.00;;;;;;5018802;28;20033;-71
2021/05/23 03:08:08;;;;;;;4.18;1.20;;;11.10;98.00;;;;;;5018823;28;20029;-71
2021/05/23 03:10:43;;;;;;;4.20;1.02;;;11.20;98.00;;;;;;5018754;28;20041;-71
2021/05/23 03:13:10;;;;;;;5.05;0.90;;;11.20;98.00;;;;;;5018792;28;20036;-71
2021/05/23 03:15:37;;;;;;;1.67;0.98;;;11.30;98.00;;;;;;5018309;28;20307;-71
2021/05/23 03:18:03;;;;;;;5.72;1.20;;;11.30;98.00;;;;;;5018580;28;20053;-71
2021/05/23 03:20:30;;;;;;;1.88;0.80;;;11.30;97.60;;;;;;5018548;28;20319;-71
2021/05/23 03:22:58;;;;;;;2.90;0.93;;;11.30;97.60;;;;;;5018546;28;20029;-71
2021/05/23 03:25:25;;;;;;;6.93;1.60;;;11.40;98.00;;;;;;5018546;28;20406;-71
2021/05/23 03:27:51;;;;;;;5.72;2.13;;;11.40;97.40;;;;;;5018112;28;20041;-71
2021/05/23 03:30:24;;;;;;;4.50;1.80;;;11.50;95.30;;;;;;5018095;28;20344;-71
2021/05/23 03:32:49;;;;;;;5.45;1.30;;;11.50;94.60;;;;;;5018384;28;20038;-71
2021/05/23 03:35:15;;;;;;;4.03;0.90;;;11.60;93.90;;;;;;5017957;28;20038;-71
2021/05/23 03:37:41;;;;;;;4.85;1.42;;;11.70;93.90;;;;;;5017911;28;20037;-71
2021/05/23 03:40:10;;;;;;;4.72;1.30;;;11.80;93.70;;;;;;5018201;28;20327;-71
2021/05/23 03:42:35;;;;;;;5.10;1.40;;;11.80;92.90;;;;;;5018083;28;20184;-71
2021/05/23 03:45:02;;;;;;;4.75;2.10;;;11.90;93.60;;;;;;5018085;28;20057;-71
2021/05/23 03:47:28;;;;;;;11.02;1.75;;;12.00;92.80;;;;;;5018115;28;20022;-71
2021/05/23 03:49:54;;;;;;;5.55;1.73;;;12.10;93.60;;;;;;5017741;28;20442;-71
2021/05/23 03:52:20;;;;;;;3.40;1.38;;;12.10;92.80;;;;;;5017750;28;20037;-71
2021/05/23 03:54:47;;;;;;;7.72;1.33;;;12.20;94.20;;;;;;5017735;28;20029;-71
2021/05/23 03:57:13;;;;;;;6.63;1.63;;;12.20;91.70;;;;;;5017847;28;20073;-71
2021/05/23 03:59:39;;;;;;;4.85;1.48;;;12.10;94.20;;;;;;5017919;28;20026;-71
2021/05/23 04:02:05;;;;;;;4.07;1.17;;;12.00;94.80;;;;;;5017485;28;20437;-71
2021/05/23 04:05:04;;;;;;;6.53;1.73;;;12.10;93.70;;;;;;5017466;28;20030;-71
2021/05/23 04:07:24;;;;;;;6.45;1.60;;;12.10;92.80;;;;;;5017144;28;20064;-71
2021/05/23 04:09:51;;;;;;;5.50;1.25;;;12.10;93.00;;;;;;5017701;28;20038;-71
2021/05/23 04:12:21;;;;;;;3.20;1.50;;;12.10;94.00;;;;;;5017432;28;20057;-71
2021/05/23 04:14:47;;;;;;;3.15;1.50;;;12.00;93.90;;;;;;5017335;28;20426;-71
2021/05/23 04:17:13;;;;;;;6.28;1.52;;;11.90;94.70;;;;;;5017256;28;20030;-71
2021/05/23 04:19:39;;;;;;;3.92;1.50;;;11.80;94.40;;;;;;5017585;28;20101;-71
2021/05/23 04:22:05;;;;;;;5.00;1.33;;;11.80;94.80;;;;;;5017225;28;20410;-71
2021/05/23 04:24:35;;;;;;;4.10;1.33;;;11.90;94.30;;;;;;5017478;28;20459;-71
2021/05/23 04:27:01;;;;;;;7.80;2.25;;;11.90;94.00;;;;;;5017133;28;20061;-71
2021/05/23 04:29:27;;;;;;;6.18;2.08;;;11.80;94.50;;;;;;5016994;28;20034;-71
2021/05/23 04:31:53;;;;;;;7.18;2.10;;;11.80;94.80;;;;;;5017080;28;20014;-71
2021/05/23 04:34:19;;;;;;;6.72;1.58;;;11.80;95.00;;;;;;5017390;28;20037;-71
2021/05/23 04:36:44;;;;;;;7.30;1.80;;;11.80;95.10;;;;;;5017051;28;20033;-71
2021/05/23 04:39:10;;;;;;;6.68;2.13;;;11.80;94.90;;;;;;5017241;28;20067;-71
2021/05/23 04:41:36;;;;;;;6.20;1.35;;;11.90;94.40;;;;;;5017042;28;20436;-70
2021/05/23 04:44:02;;;;;;;6.03;1.60;;;11.90;94.10;;;;;;5017242;28;20030;-71
2021/05/23 04:46:28;;;;;;;4.43;1.20;;;11.90;94.00;;;;;;5017246;28;20318;-71
2021/05/23 04:48:53;;;;;;;8.90;2.47;;;11.90;93.90;;;;;;5016922;28;20033;-71
2021/05/23 04:51:19;;;;;;;8.20;2.40;;;12.00;94.10;;;;;;5016787;28;20037;-71
2021/05/23 04:53:46;;;;;;;7.20;1.63;;;12.00;94.40;;;;;;5016684;28;20036;-71
2021/05/23 04:56:12;;;;;;;7.68;1.50;;;12.10;94.40;;;;;;5016703;28;20045;-71
2021/05/23 04:58:38;;;;;;;7.65;1.95;;;12.20;96.10;;;;;;5016712;28;20053;-71
2021/05/23 05:01:04;;;;;;;7.05;1.65;;;12.30;96.40;;;;;;5017088;28;20018;-71
2021/05/23 05:03:29;;;;;;;10.68;2.20;;;12.40;95.20;;;;;;5016797;28;20361;-71
2021/05/23 05:05:55;;;;;;;8.77;1.77;;;12.50;94.50;;;;;;5016616;28;20018;-71
2021/05/23 05:08:21;;;;;;;5.88;1.77;;;12.60;94.60;;;;;;5017007;28;20038;-71
2021/05/23 05:10:46;;;;;;;3.85;1.30;;;12.80;94.30;;;;;;5016696;28;20327;-71
2021/05/23 05:13:12;;;;;;;5.05;1.30;;;12.90;94.50;;;;;;5016983;28;20033;-71
2021/05/23 05:15:38;;;;;;;6.13;1.70;;;13.00;95.10;;;;;;5016911;28;20033;-71
2021/05/23 05:18:04;;;;;;;6.38;2.20;;;13.00;92.60;;;;;;5016564;28;20117;-71
2021/05/23 05:20:29;;;;;;;6.00;1.20;;;13.00;91.80;;;;;;5016909;28;20105;-71
2021/05/23 05:22:55;;;;;;;5.10;1.35;;;12.90;91.10;;;;;;5016916;28;20299;-71
2021/05/23 05:25:21;;;;;;;4.90;1.42;;;13.00;90.90;;;;;;5016759;28;20423;-71
2021/05/23 05:27:47;;;;;;;5.43;1.33;;;12.90;91.40;;;;;;5016511;28;20120;-71
2021/05/23 05:30:14;;;;;;;7.03;1.45;;;12.90;91.80;;;;;;5016551;28;20338;-71
2021/05/23 05:32:39;;;;;;;10.02;1.55;;;12.90;91.90;;;;;;5016420;28;20418;-71
2021/05/23 05:35:06;;;;;;;7.95;1.17;;;13.00;91.80;;;;;;5016442;28;20029;-71
2021/05/23 05:37:32;;;;;;;3.97;1.40;;;13.10;92.00;;;;;;5016611;28;20026;-71
2021/05/23 05:39:58;;;;;;;6.15;1.48;;;13.30;92.20;;;;;;5016398;28;20465;-71
2021/05/23 05:42:23;;;;;;;9.48;1.60;;;13.50;91.70;;;;;;5016695;28;20033;-71
2021/05/23 05:44:49;;;;;;;4.65;1.38;;;13.70;89.60;;;;;;5016344;28;20026;-71
2021/05/23 05:47:15;;;;;;;3.88;1.35;;;13.80;88.50;;;;;;5016671;28;20026;-71
2021/05/23 05:49:40;;;;;;;8.77;1.35;;;14.00;88.40;;;;;;5016347;28;20102;-71
2021/05/23 05:52:06;;;;;;;5.75;1.30;;;14.10;88.50;;;;;;5016594;28;20037;-71
2021/05/23 05:54:33;;;;;;;3.90;1.20;;;14.20;88.50;;;;;;5016560;28;20026;-71
2021/05/23 05:57:00;;;;;;;4.35;1.38;;;14.30;87.20;;;;;;5016493;28;20110;-71
2021/05/23 05:59:26;;;;;;;2.58;1.00;;;14.30;86.50;;;;;;5016564;28;20037;-71
2021/05/23 06:01:52;;;;;;;5.28;1.00;;;14.40;85.80;;;;;;5016503;28;20026;-71
2021/05/23 06:04:17;;;;;;;6.90;1.60;;;14.70;85.40;;;;;;5016489;28;20080;-71
2021/05/23 06:06:43;;;;;;;5.60;1.23;;;15.20;84.30;;;;;;5018630;28;20060;-71
2021/05/23 06:09:09;;;;;;;4.43;1.10;;;15.60;82.20;;;;;;5019613;28;20033;-71
2021/05/23 06:11:35;;;;;;;2.85;1.00;;;16.10;80.50;;;;;;5019595;28;20036;-71
2021/05/23 06:14:01;;;;;;;3.60;1.02;;;16.20;80.20;;;;;;5019832;28;20026;-71
2021/05/23 06:16:26;;;;;;;4.78;0.90;;;16.40;78.90;;;;;;5019853;28;20029;-71
2021/05/23 06:18:52;;;;;;;3.65;1.20;;;16.60;78.60;;;;;;5019730;28;20413;-71
2021/05/23 06:21:18;;;;;;;3.15;1.00;;;17.10;77.50;;;;;;5019431;28;20410;-71
2021/05/23 06:23:43;;;;;;;2.15;0.70;;;17.30;75.60;;;;;;5019765;28;20022;-71
2021/05/23 06:26:13;;;;;;;5.82;1.20;;;17.70;74.10;;;;;;5019225;28;20387;-71
2021/05/23 06:28:40;;;;;;;4.13;1.30;;;18.10;73.10;;;;;;5019610;28;20042;-71
2021/05/23 06:31:06;;;;;;;3.80;0.80;;;18.50;73.10;;;;;;5019055;28;20058;-71
2021/05/23 06:33:32;;;;;;;4.00;0.82;;;19.10;71.60;;;;;;5019529;28;20072;-71
2021/05/23 06:35:58;;;;;;;3.42;0.90;;;19.50;71.50;;;;;;5019128;28;20434;-71
2021/05/23 06:38:24;;;;;;;6.85;1.40;;;19.90;68.40;;;;;;5019383;28;20053;-71
2021/05/23 06:40:50;;;;;;;3.45;0.77;;;20.20;68.80;;;;;;5019376;28;20129;-71
2021/05/23 06:43:15;;;;;;;5.53;0.95;;;20.40;67.50;;;;;;5019381;28;20457;-71
2021/05/23 06:45:41;;;;;;;4.03;1.00;;;20.70;68.90;;;;;;5019238;28;20406;-71
2021/05/23 06:48:09;;;;;;;5.35;1.00;;;21.00;67.00;;;;;;5019177;28;20488;-71
2021/05/23 06:50:34;;;;;;;3.05;1.08;;;21.20;65.50;;;;;;5019214;28;20029;-71
2021/05/23 06:53:01;;;;;;;1.85;0.70;;;21.50;65.60;;;;;;5018875;28;20468;-71
2021/05/23 06:55:26;;;;;;;3.20;1.10;;;21.70;64.10;;;;;;5019155;28;20326;-71
2021/05/23 06:57:52;;;;;;;3.75;1.13;;;21.80;64.40;;;;;;5018946;28;20113;-71
2021/05/23 07:00:19;;;;;;;4.43;1.42;;;21.80;63.90;;;;;;5018700;28;20033;-71
2021/05/23 07:02:45;;;;;;;3.72;1.02;;;21.50;64.40;;;;;;5019063;28;20022;-71
2021/05/23 07:05:11;;;;;;;3.72;1.25;;;21.40;64.30;;;;;;5018811;28;20029;-71
2021/05/23 07:07:37;;;;;;;5.80;1.10;;;21.70;65.90;;;;;;5018548;28;20022;-71
2021/05/23 07:10:04;;;;;;;5.78;1.40;;;22.00;64.00;;;;;;5018789;28;20041;-71
2021/05/23 07:12:30;;;;;;;3.50;1.20;;;22.20;63.00;;;;;;5018447;28;20064;-71
2021/05/23 07:14:56;;;;;;;3.75;0.93;;;22.30;64.90;;;;;;5018698;28;20021;-71
2021/05/23 07:17:21;;;;;;;5.05;1.15;;;22.30;64.60;;;;;;5018100;28;20131;-71
2021/05/23 07:19:47;;;;;;;3.63;1.17;;;22.40;65.00;;;;;;5018623;28;20022;-71
2021/05/23 07:22:14;;;;;;;4.82;1.25;;;22.40;64.60;;;;;;5018312;28;20311;-71
2021/05/23 07:24:39;;;;;;;2.58;0.80;;;22.20;64.50;;;;;;5018266;28;20033;-71
2021/05/23 07:27:05;;;;;;;4.53;0.93;;;22.20;65.10;;;;;;5018501;28;20022;-71
2021/05/23 07:29:31;;;;;;;4.65;1.02;;;22.40;64.00;;;;;;5017913;28;20354;-71
2021/05/23 07:31:57;;;;;;;6.25;1.40;;;22.30;63.90;;;;;;5018025;28;20018;-71
2021/05/23 07:34:23;;;;;;;2.63;0.88;;;22.10;66.90;;;;;;5018345;28;20076;-71
2021/05/23 07:36:49;;;;;;;6.55;1.55;;;22.30;67.50;;;;;;5018335;28;20018;-71
2021/05/23 07:39:15;;;;;;;5.07;1.27;;;22.40;64.40;;;;;;5033343;28;20098;-71
2021/05/23 07:41:41;;;;;;;5.50;1.02;;;22.70;63.20;;;;;;5017627;28;20121;-71
2021/05/23 07:44:06;;;;;;;3.80;1.23;;;23.00;64.40;;;;;;5016654;28;20056;-71
2021/05/23 07:46:32;;;;;;;4.20;0.90;;;23.20;62.20;;;;;;5014776;28;20022;-73
2021/05/23 07:48:59;;;;;;;6.70;1.17;;;23.50;60.60;;;;;;5017009;28;20025;-71
2021/05/23 07:51:25;;;;;;;4.07;1.33;;;24.10;60.50;;;;;;5024361;28;20029;-71
2021/05/23 07:53:51;;;;;;;8.35;1.15;;;24.40;58.60;;;;;;5037062;28;20036;-72
2021/05/23 07:56:18;;;;;;;3.58;1.02;;;24.60;60.80;;;;;;5035789;28;20029;-76
2021/05/23 07:58:44;;;;;;;5.72;1.63;;;24.60;59.90;;;;;;5036096;28;20060;-80
2021/05/23 08:01:12;;;;;;;7.40;1.98;;;24.90;59.30;;;;;;5036952;28;20017;-73
2021/05/23 08:03:39;;;;;;;7.47;1.80;;;25.10;59.20;;;;;;5037074;28;20022;-72
2021/05/23 08:06:05;;;;;;;4.20;1.20;;;25.30;59.50;;;;;;5035590;28;20021;-72
2021/05/23 08:08:31;;;;;;;4.88;1.15;;;25.40;59.60;;;;;;5036906;28;20036;-72
2021/05/23 08:10:57;;;;;;;5.40;1.70;;;25.40;59.40;;;;;;5036774;28;20025;-73
2021/05/23 08:13:22;;;;;;;5.55;1.55;;;25.30;57.30;;;;;;5036973;28;20051;-74
2021/05/23 08:15:48;;;;;;;5.82;1.50;;;25.40;58.10;;;;;;5111803;22;20054;-72
2021/05/23 08:18:22;;;;;;;6.20;1.40;;;25.40;60.80;;;;;;5036657;28;20117;-71
2021/05/23 08:20:50;;;;;;;7.57;2.05;;;25.00;60.90;;;;;;5036114;28;20034;-71
2021/05/23 08:23:15;;;;;;;6.20;1.60;;;25.00;60.50;;;;;;5036611;28;20034;-71
2021/05/23 08:25:41;;;;;;;5.50;1.40;;;25.00;59.00;;;;;;5037007;28;20024;-71
2021/05/23 08:28:07;;;;;;;4.03;1.17;;;25.10;60.80;;;;;;5035765;28;20377;-71
2021/05/23 08:30:32;;;;;;;11.27;1.67;;;25.10;61.40;;;;;;5036804;28;20025;-71
2021/05/23 08:32:59;;;;;;;4.40;1.52;;;24.50;61.70;;;;;;5036718;28;20071;-75
2021/05/23 08:35:25;;;;;;;7.00;1.50;;;23.40;64.40;;;;;;5036569;28;20326;-74
2021/05/23 08:37:50;;;;;;;5.28;1.58;;;22.90;65.00;;;;;;5036592;28;20029;-74
2021/05/23 08:40:16;;;;;;;4.95;1.73;;;22.70;68.40;;;;;;5036535;28;20044;-73
2021/05/23 08:42:42;;;;;;;6.47;2.35;;;22.70;63.50;;;;;;5035751;28;20032;-72
2021/05/23 08:45:09;;;;;;;6.15;1.50;;;22.60;64.90;;;;;;5036094;28;20033;-74
2021/05/23 08:47:40;;;;;;;16.00;2.95;;;22.00;67.80;;;;;;5036518;28;20034;-70
2021/05/23 08:50:07;;;;;;;6.40;1.63;;;21.80;67.10;;;;;;5036445;28;20080;-73
2021/05/23 08:52:32;;;;;;;6.70;1.77;;;21.60;66.80;;;;;;5036466;28;20365;-72
2021/05/23 08:54:59;;;;;;;6.45;1.70;;;21.30;67.10;;;;;;5036022;28;20053;-75
2021/05/23 08:57:24;;;;;;;8.07;2.13;;;21.70;66.90;;;;;;5036011;28;20033;-73
2021/05/23 08:59:51;;;;;;;8.40;1.60;;;22.90;66.40;;;;;;5034268;28;20028;-75
2021/05/23 09:02:17;;;;;;;7.82;1.60;;;23.80;62.20;;;;;;5033479;28;20493;-74
2021/05/23 09:04:51;;;;;;;6.50;1.95;;;24.40;60.80;;;;;;5035711;28;20022;-76
2021/05/23 09:07:17;;;;;;;6.70;1.80;;;25.00;62.70;;;;;;5031363;28;20051;-76
2021/05/23 09:09:48;;;;;;;4.82;1.73;;;25.70;59.70;;;;;;5036048;28;20025;-77
2021/05/23 09:12:15;;;;;;;8.00;1.85;;;26.10;60.40;;;;;;5036202;28;20105;-76
2021/05/23 09:14:44;;;;;;;9.10;1.67;;;26.50;59.20;;;;;;5035962;28;20030;-78
2021/05/23 09:17:19;;;;;;;6.80;1.50;;;26.60;56.30;;;;;;5034384;28;20022;-76
2021/05/23 09:19:44;;;;;;;3.83;1.60;;;26.70;58.20;;;;;;5036083;28;20318;-76
2021/05/23 09:22:12;;;;;;;6.95;1.52;;;27.00;58.10;;;;;;5036121;28;20041;-76
2021/05/23 09:24:54;;;;;;;9.48;1.77;;;26.70;55.60;;;;;;5036405;28;20021;-74
2021/05/23 09:27:23;;;;;;;3.67;1.13;;;26.50;59.50;;;;;;5035171;28;20029;-78
2021/05/23 09:30:22;;;;;;;9.48;2.17;;;26.50;56.70;;;;;;5028321;28;20021;-73
2021/05/23 09:32:50;;;;;;;7.32;1.65;;;26.70;59.70;;;;;;5018575;28;20109;-73
2021/05/23 09:35:17;;;;;;;5.97;1.42;;;25.40;59.80;;;;;;5034029;28;20021;-71
2021/05/23 09:37:43;;;;;;;5.93;1.80;;;24.50;61.50;;;;;;5033851;28;20094;-71
2021/05/23 09:40:21;;;;;;;9.60;2.00;;;24.40;64.10;;;;;;5035352;28;20033;-70
2021/05/23 09:42:49;;;;;;;5.20;1.55;;;24.20;62.10;;;;;;5037141;28;20057;-70
2021/05/23 09:45:17;;;;;;;3.92;1.30;;;23.80;62.20;;;;;;5037393;28;20033;-70
2021/05/23 09:47:58;;;;;;;8.55;2.00;;;23.10;63.70;;;;;;5036766;28;20483;-70
2021/05/23 09:50:42;;;;;;;9.30;2.40;;;22.50;65.30;;;;;;5037691;28;20376;-70
2021/05/23 09:53:27;;;;;;;6.53;1.77;;;21.80;66.80;;;;;;5037657;28;20348;-70
2021/05/23 09:56:02;;;;;;;10.48;2.72;;;20.90;70.20;;;;;;5037752;28;20101;-70
2021/05/23 09:58:39;;;;;;;5.88;1.85;;;20.50;73.50;;;;;;5036615;28;20025;-70
2021/05/23 10:01:07;;;;;;;6.72;1.90;;;20.40;74.60;;;;;;5036804;28;20025;-70
2021/05/23 10:03:36;;;;;;;6.82;1.92;;;20.60;74.00;;;;;;5036975;28;20052;-70
2021/05/23 10:06:02;;;;;;;10.30;2.45;;;22.00;72.00;;;;;;5036662;28;20022;-70
2021/05/23 10:08:29;;;;;;;6.35;2.20;;;22.80;68.80;;;;;;5037845;28;20084;-70
2021/05/23 10:10:55;;;;;;;15.23;2.55;;;22.60;68.40;;;;;;5037447;28;20055;-70
2021/05/23 10:13:24;;;;;;;6.95;1.83;;;22.10;66.90;;;;;;5038986;28;20057;-70
2021/05/23 10:15:50;;;;;;;9.82;2.22;;;21.50;67.00;;;;;;5035807;28;20049;-70
2021/05/23 10:18:19;;;;;;;7.97;2.00;;;21.00;71.60;;;;;;5030486;28;20390;-70
2021/05/23 10:20:45;;;;;;;6.80;2.40;;;21.00;71.60;;;;;;5019440;28;20032;-70
2021/05/23 10:23:15;;;;;;;7.03;1.92;;;21.40;70.20;;;;;;5019737;28;20022;-71
2021/05/23 10:25:49;;;;;;;9.40;2.40;;;21.50;70.70;;;;;;5019623;28;20318;-70
2021/05/23 10:28:17;;;;;;;9.05;2.95;;;21.90;68.10;;;;;;5019694;28;20060;-70
2021/05/23 10:31:01;;;;;;;8.65;2.20;;;22.80;65.30;;;;;;5019576;28;20092;-70
2021/05/23 10:33:26;;;;;;;9.40;2.60;;;22.50;69.80;;;;;;5019309;28;20034;-70
2021/05/23 10:35:54;;;;;;;9.68;2.00;;;22.40;74.50;;;;;;5019458;28;20022;-70
2021/05/23 10:38:22;;;;;;;6.45;2.67;;;22.20;71.30;;;;;;5019097;28;20041;-70
2021/05/23 10:40:51;;;;;;;4.82;2.05;;;22.80;72.50;;;;;;5019065;28;20014;-71
2021/05/23 10:43:22;;;;;;;8.68;2.20;;;23.80;66.10;;;;;;5019087;28;20026;-70
2021/05/23 10:45:48;;;;;;;12.75;2.22;;;24.50;63.70;;;;;;5019267;28;20026;-71
2021/05/23 10:48:17;;;;;;;7.38;2.42;;;25.20;66.30;;;;;;5019025;28;20109;-71
2021/05/23 10:50:44;;;;;;;5.53;1.85;;;25.40;62.80;;;;;;5018732;28;20055;-70
2021/05/23 10:53:11;;;;;;;10.48;2.28;;;25.00;65.70;;;;;;5018566;28;20044;-70
2021/05/23 10:55:51;;;;;;;5.88;1.63;;;25.20;65.10;;;;;;5019074;28;20049;-71
2021/05/23 10:58:21;;;;;;;9.10;2.42;;;25.50;64.40;;;;;;5018976;28;20030;-71
2021/05/23 11:00:51;;;;;;;6.22;2.20;;;25.70;67.70;;;;;;5018680;28;20056;-71
2021/05/23 11:03:19;;;;;;;7.93;2.13;;;25.80;62.40;;;;;;5018716;28;20026;-70
2021/05/23 11:05:46;;;;;;;8.38;2.70;;;26.00;67.70;;;;;;5018576;28;20053;-70
2021/05/23 11:08:14;;;;;;;6.30;2.63;;;26.20;63.20;;;;;;5018892;28;20033;-70
2021/05/23 11:10:44;;;;;;;9.90;2.53;;;26.10;60.80;;;;;;5018452;28;20030;-70
2021/05/23 11:13:13;;;;;;;7.75;1.90;;;26.10;61.70;;;;;;5018777;28;20034;-70
2021/05/23 11:15:47;;;;;;;10.48;2.35;;;26.10;63.00;;;;;;5018258;28;20054;-70
2021/05/23 11:18:15;;;;;;;11.35;2.50;;;26.00;62.20;;;;;;5018644;28;20084;-70
2021/05/23 11:20:41;;;;;;;6.72;1.92;;;26.10;59.60;;;;;;5018267;28;20479;-70
2021/05/23 11:23:07;;;;;;;8.77;2.70;;;25.50;60.90;;;;;;5018653;28;20034;-70
2021/05/23 11:25:34;;;;;;;7.35;2.40;;;24.90;63.10;;;;;;5018204;28;20433;-70
2021/05/23 11:28:07;;;;;;;7.22;2.35;;;24.00;63.70;;;;;;5018184;28;20064;-70
2021/05/23 11:30:38;;;;;;;10.60;2.15;;;23.00;68.40;;;;;;5018237;28;20025;-70
2021/05/23 11:33:09;;;;;;;10.45;3.05;;;22.20;67.30;;;;;;5018100;28;20034;-70
2021/05/23 11:35:37;;;;;;;7.15;2.85;;;21.70;69.10;;;;;;5018368;28;20029;-70
2021/05/23 11:38:03;;;;;;;6.78;2.50;;;21.30;68.90;;;;;;5017953;28;20033;-70
2021/05/23 11:40:37;;;;;;;11.25;2.97;;;21.10;70.50;;;;;;5018249;28;20026;-70
2021/05/23 11:43:17;;;;;;;10.53;3.20;;;20.80;71.50;;;;;;5018321;28;20030;-70
2021/05/23 11:45:57;;;;;;;7.10;2.78;;;20.40;72.90;;;;;;5018265;28;20037;-69
2021/05/23 11:48:45;;;;;;;6.97;2.40;;;20.20;75.10;;;;;;5018175;28;20030;-71
2021/05/23 11:51:13;;;;;;;11.10;2.63;;;20.30;78.60;;;;;;5017730;28;20030;-70
2021/05/23 11:53:47;;;;;;;6.53;2.45;;;20.60;75.00;;;;;;5018019;28;20030;-72
2021/05/23 11:56:26;;;;;;;10.90;3.00;;;20.90;74.60;;;;;;5017574;28;20033;-70
2021/05/23 11:58:56;;;;;;;7.28;2.72;;;21.50;72.40;;;;;;5017529;28;20026;-70
2021/05/23 12:01:29;;;;;;;7.25;2.58;;;22.20;71.50;;;;;;5017855;28;20030;-70
2021/05/23 12:04:08;;;;;;;6.97;2.50;;;22.60;69.50;;;;;;5017471;28;20121;-72
2021/05/23 12:06:36;;;;;;;7.38;2.80;;;22.60;70.80;;;;;;5017781;28;20030;-72
2021/05/23 12:09:16;;;;;;;8.05;3.28;;;22.50;67.20;;;;;;5016695;28;20022;-72
2021/05/23 12:11:51;;;;;;;9.18;2.92;;;22.30;72.50;;;;;;5017341;28;20095;-72
2021/05/23 12:14:23;;;;;;;;;;;22.10;69.00;;;;;;5017922;28;20405;-72
2021/05/23 12:16:57;;;;;;;7.15;2.70;;;21.80;69.70;;;;;;5017187;28;19967;-72
2021/05/23 12:19:49;;;;;;;8.30;2.75;;;21.60;72.10;;;;;;5017534;28;20188;-71
2021/05/23 12:22:30;;;;;;;9.75;2.90;;;21.30;73.40;;;;;;5016956;28;20022;-72
2021/05/23 12:24:58;;;;;;;7.20;2.40;;;21.00;71.70;;;;;;5017214;28;20030;-71
2021/05/23 12:27:31;;;;;;;9.15;2.45;;;20.60;72.00;;;;;;5017494;28;20292;-71
2021/05/23 12:30:17;;;;;;;4.97;1.95;;;20.10;71.50;;;;;;5017503;28;20330;-72
2021/05/23 12:32:52;;;;;;;5.38;1.80;;;19.40;69.50;;;;;;5017184;28;20022;-71
2021/05/23 12:35:24;;;;;;;;;;;19.00;70.40;;;;;;5017813;28;20369;-72
2021/05/23 12:37:56;;;;;;;4.93;1.00;;;18.50;67.60;;;;;;5017325;28;19910;-71
2021/05/23 12:40:48;;;;;;;2.28;0.88;;;18.00;68.70;;;;;;5017099;28;20422;-71
2021/05/23 12:43:24;;;;;;;3.35;0.82;;;17.50;67.10;;;;;;5014473;28;20045;-71
2021/05/23 12:45:50;;;;;;;8.40;0.50;;;16.90;68.60;;;;;;5017474;28;20030;-71
2021/05/23 12:48:16;;;;;;;5.60;0.95;;;16.30;68.50;;;;;;5017259;28;20038;-71
2021/05/23 12:50:50;;;;;;;5.13;1.33;;;15.90;76.60;;;;;;5016943;28;20319;-71